Spiegelgracht — PCEO — position and weather

sailwx.info

Track history (hours):
 
Tides and Currents Weather Stations Pressure Air Temp Water Temp Dewpoint Dewpoint Depression Visibility Wind Speed Wind Dir Waves Ship Positions

Spiegelgracht

Last reported at 2018-Jan-06 11:32 UTC. Time now 2018-Jan-20 21:19 UTC.
Position N 35°03' W 033°03'.
Warning: this ship's position is 14 days out of date.

Length 168 m; beam 25 m.

Type: Cargo ship. MMSI: 245789000.

Date/timePositionNaut miles runAvg speedWind from/ knotsBaromVisibWave heightAir tempDewpointWater temp
2018-Jan-06 11:32N 35°03' W 033°03'117.0
2018-Jan-06 11:29N 35°03' W 033°02'816.8
2018-Jan-06 11:00N 35°04' W 032°52'1717.2
2018-Jan-06 10:02N 35°08' W 032°32'117.7
2018-Jan-06 10:00N 35°08' W 032°32'917.3
2018-Jan-06 09:30N 35°10' W 032°21'917.3
2018-Jan-06 08:59N 35°12' W 032°11'2616.9
2018-Jan-06 07:28N 35°17' W 031°40'2216.7
2018-Jan-06 06:08N 35°22' W 031°13'416.9
2018-Jan-06 05:53N 35°23' W 031°08'2916.7
2018-Jan-06 04:09N 35°28' W 030°33'617.1
2018-Jan-06 03:46N 35°29' W 030°26'1816.9
2018-Jan-06 02:44N 35°33' W 030°05'3716.6
2018-Jan-06 00:32N 35°40' W 029°20'616.8
2018-Jan-06 00:12N 35°41' W 029°14'916.6
2018-Jan-05 23:40N 35°43' W 029°03'516.4
2018-Jan-05 23:22N 35°44' W 028°57'1116.7
2018-Jan-05 22:41N 35°47' W 028°44'3116.8
2018-Jan-05 20:49N 35°54' W 028°06'8916.0
2018-Jan-05 15:14N 36°11' W 026°17'415.5
2018-Jan-05 15:00N 36°11' W 026°13'815.8
2018-Jan-05 14:30N 36°13' W 026°03'815.7
2018-Jan-05 14:00N 36°15' W 025°54'815.9
2018-Jan-05 13:30N 36°16' W 025°44'816.0
2018-Jan-05 13:00N 36°18' W 025°35'815.8
2018-Jan-05 12:31N 36°20' W 025°25'815.9
2018-Jan-05 12:00N 36°21' W 025°15'815.7
2018-Jan-05 11:30N 36°23' W 025°06'815.7
2018-Jan-05 11:00N 36°25' W 024°56'815.9
2018-Jan-05 10:30N 36°26' W 024°47'816.1
2018-Jan-05 10:00N 36°28' W 024°37'815.9
2018-Jan-05 09:31N 36°29' W 024°27'815.8
2018-Jan-05 09:00N 36°31' W 024°17'815.9
2018-Jan-05 08:30N 36°32' W 024°08'816.0
2018-Jan-05 08:01N 36°34' W 023°58'816.0
2018-Jan-05 07:30N 36°36' W 023°48'816.2
2018-Jan-05 06:59N 36°37' W 023°38'  
2018-Jan-01 19:18N 49°37' W 004°28'310.6
2018-Jan-01 19:00N 49°38' W 004°24'510.2
2018-Jan-01 18:29N 49°40' W 004°16'6 9.8
2018-Jan-01 17:54N 49°42' W 004°08'5 9.4
2018-Jan-01 17:21N 49°44' W 004°00'23 9.8
2018-Jan-01 15:00N 49°52' W 003°27'612.9
2018-Jan-01 14:30N 49°53' W 003°17'714.5
2018-Jan-01 14:00N 49°56' W 003°07'815.8
2018-Jan-01 13:30N 49°60' W 002°56'917.2
2018-Jan-01 13:01N 50°02' W 002°43'7516.5
2018-Jan-01 08:28N 50°21' W 000°50'510.9
2018-Jan-01 08:00N 50°23' W 000°43'510.7
2018-Jan-01 07:30N 50°25' W 000°35'510.6
2018-Jan-01 07:00N 50°26' W 000°27'1211.7
2018-Jan-01 06:00N 50°29' W 000°09'713.1
2018-Jan-01 05:30N 50°30' E 000°01'713.9
2018-Jan-01 05:01N 50°32' E 000°11'1515.0
2018-Jan-01 04:01N 50°37' E 000°34'815.5
2018-Jan-01 03:31N 50°41' E 000°44'815.9
2018-Jan-01 03:01N 50°46' E 000°54'815.5
2018-Jan-01 02:30N 50°50' E 001°04'714.8
2018-Jan-01 02:01N 50°56' E 001°13'713.9
2018-Jan-01 01:30N 51°00' E 001°21'1212.1
2018-Jan-01 00:30N 51°08' E 001°35'18314.8
2017-Dec-31 12:11N 53°30' E 004°45'5713.5
2017-Dec-31 07:56N 53°38' E 006°20'1112.1
2017-Dec-31 07:04N 53°35' E 006°38'214.6
2017-Dec-31 06:54N 53°34' E 006°41'614.5
2017-Dec-31 06:30N 53°30' E 006°48'3 6.0
2017-Dec-31 06:00N 53°27' E 006°50'0 0.0
2017-Dec-31 05:29N 53°27' E 006°50'0 0.0
2017-Dec-31 04:59N 53°27' E 006°50'0 0.0
2017-Dec-31 04:29N 53°27' E 006°50'0 0.0
2017-Dec-31 03:59N 53°27' E 006°50'0 0.0
2017-Dec-31 03:29N 53°27' E 006°50'0 0.0
2017-Dec-31 02:59N 53°27' E 006°50'0 0.0
2017-Dec-31 02:29N 53°27' E 006°50'0 0.0
2017-Dec-31 01:59N 53°27' E 006°50'0 0.0
2017-Dec-31 01:29N 53°27' E 006°50'0 0.0
2017-Dec-31 00:59N 53°27' E 006°50'0 0.0
2017-Dec-31 00:29N 53°27' E 006°50'0 0.0
2017-Dec-30 23:59N 53°27' E 006°50'0 0.0
2017-Dec-30 23:29N 53°27' E 006°50'0 0.0
2017-Dec-30 22:59N 53°27' E 006°50'0 0.0
2017-Dec-30 22:29N 53°27' E 006°50'0 0.0
2017-Dec-30 21:59N 53°27' E 006°50'0 0.0
2017-Dec-30 21:29N 53°27' E 006°50'0 0.0
2017-Dec-30 20:59N 53°27' E 006°50'0 0.0
2017-Dec-30 20:29N 53°27' E 006°50'0 0.0
2017-Dec-30 19:59N 53°27' E 006°50'0 0.0
2017-Dec-30 19:29N 53°27' E 006°50'0 0.0
2017-Dec-30 18:59N 53°27' E 006°50'0 0.0
2017-Dec-30 18:29N 53°27' E 006°50'0 0.0
2017-Dec-30 17:59N 53°27' E 006°50'0 0.0
2017-Dec-30 17:29N 53°27' E 006°50'0 0.0
2017-Dec-30 16:59N 53°27' E 006°50'0 0.0
2017-Dec-30 16:29N 53°27' E 006°50'0 0.0
2017-Dec-30 15:59N 53°27' E 006°50'0 0.0
2017-Dec-30 15:29N 53°27' E 006°50'0 0.0
2017-Dec-30 14:59N 53°27' E 006°50'0 0.0
2017-Dec-30 14:28N 53°27' E 006°50'0 0.0
2017-Dec-30 13:58N 53°27' E 006°50'0 0.0
2017-Dec-30 13:28N 53°27' E 006°50'0 0.0
2017-Dec-30 12:58N 53°27' E 006°50'0 0.0
2017-Dec-30 12:28N 53°27' E 006°50'0 0.0
2017-Dec-30 11:58N 53°27' E 006°50'0 0.0
2017-Dec-30 11:28N 53°27' E 006°50'0 0.0
2017-Dec-30 10:58N 53°27' E 006°50'0 0.0
2017-Dec-30 10:28N 53°27' E 006°50'0 0.0
2017-Dec-30 09:58N 53°27' E 006°50'0 0.0
2017-Dec-30 09:28N 53°27' E 006°50'0 0.0
2017-Dec-30 08:58N 53°27' E 006°50'0 0.0
2017-Dec-30 08:28N 53°27' E 006°50'0 0.0
2017-Dec-30 07:58N 53°27' E 006°50'0 0.0
2017-Dec-30 07:28N 53°27' E 006°50'0 0.0
2017-Dec-30 06:58N 53°27' E 006°50'0 0.0
2017-Dec-30 06:28N 53°27' E 006°50'0 0.0
2017-Dec-30 05:55N 53°27' E 006°50'0 0.0
2017-Dec-30 05:28N 53°27' E 006°50'0 0.0
2017-Dec-30 04:58N 53°27' E 006°50'0 0.0
2017-Dec-30 04:28N 53°27' E 006°50'0 0.0
2017-Dec-30 03:58N 53°27' E 006°50'0 0.0
2017-Dec-30 03:28N 53°27' E 006°50'0 0.0
2017-Dec-30 02:58N 53°27' E 006°50'0 0.0
2017-Dec-30 02:28N 53°27' E 006°50'0 0.0
2017-Dec-30 01:58N 53°27' E 006°50'0 0.0
2017-Dec-30 01:28N 53°27' E 006°50'0 0.0
2017-Dec-30 00:58N 53°27' E 006°50'0 0.0
2017-Dec-30 00:28N 53°27' E 006°50'0 0.0
2017-Dec-29 23:58N 53°27' E 006°50'0 0.0
2017-Dec-29 23:28N 53°27' E 006°50'0 0.0
2017-Dec-29 22:58N 53°27' E 006°50'0 0.0
2017-Dec-29 22:28N 53°27' E 006°50'0 0.0
2017-Dec-29 21:58N 53°27' E 006°50'0 0.0
2017-Dec-29 21:25N 53°27' E 006°50'0 0.0
2017-Dec-29 20:58N 53°27' E 006°50'0 0.0
2017-Dec-29 20:28N 53°27' E 006°50'0 0.0
2017-Dec-29 19:58N 53°27' E 006°50'0 0.0
2017-Dec-29 19:28N 53°27' E 006°50'0 0.0
2017-Dec-29 18:58N 53°27' E 006°50'0 0.0
2017-Dec-29 18:25N 53°27' E 006°50'0 0.0
2017-Dec-29 17:58N 53°27' E 006°50'0 0.0
2017-Dec-29 17:28N 53°27' E 006°50'0 0.0
2017-Dec-29 16:58N 53°27' E 006°50'0 0.1
2017-Dec-29 16:28N 53°27' E 006°50'0 0.1
2017-Dec-29 15:58N 53°27' E 006°50'0 0.0
2017-Dec-29 15:28N 53°27' E 006°50'0 0.0
2017-Dec-29 14:58N 53°27' E 006°50'0 0.0
2017-Dec-29 14:28N 53°27' E 006°50'0 0.0
2017-Dec-29 13:58N 53°27' E 006°50'0 0.0
2017-Dec-29 13:28N 53°27' E 006°50'0 0.0
2017-Dec-29 12:58N 53°27' E 006°50'0 0.0
2017-Dec-29 12:28N 53°27' E 006°50'0 0.0
2017-Dec-29 11:58N 53°27' E 006°50'0 0.0
2017-Dec-29 11:28N 53°27' E 006°50'0 0.0
2017-Dec-29 10:58N 53°27' E 006°50'0 0.0
2017-Dec-29 10:25N 53°27' E 006°50'0 0.0
2017-Dec-29 09:58N 53°27' E 006°50'0 0.2
2017-Dec-29 09:28N 53°27' E 006°50'0 0.0
2017-Dec-29 08:58N 53°27' E 006°50'0 0.0
2017-Dec-29 08:28N 53°27' E 006°50'0 0.0
2017-Dec-29 07:58N 53°27' E 006°50'0 0.0
2017-Dec-29 07:28N 53°27' E 006°50'0 0.0
2017-Dec-29 06:58N 53°27' E 006°50'0 0.0
2017-Dec-29 06:28N 53°27' E 006°50'0 0.0
2017-Dec-29 05:58N 53°27' E 006°50'0 0.0
2017-Dec-29 05:28N 53°27' E 006°50'0 0.0
2017-Dec-29 04:58N 53°27' E 006°50'0 0.0
2017-Dec-29 04:28N 53°27' E 006°50'0 0.0
2017-Dec-29 03:49N 53°27' E 006°50'0 0.0
2017-Dec-29 03:31N 53°27' E 006°50'0 0.0
2017-Dec-29 03:01N 53°27' E 006°50'0 0.0
2017-Dec-29 02:30N 53°27' E 006°50'0 0.0
2017-Dec-29 02:00N 53°27' E 006°50'0 0.0
2017-Dec-29 01:30N 53°27' E 006°50'0 0.0
2017-Dec-29 01:00N 53°27' E 006°50'0 0.0
2017-Dec-29 00:30N 53°27' E 006°50'0 0.0
2017-Dec-29 00:00N 53°27' E 006°50'0 0.0
2017-Dec-28 23:30N 53°27' E 006°50'0 0.0
2017-Dec-28 23:00N 53°27' E 006°50'0 0.0
2017-Dec-28 22:30N 53°27' E 006°50'0 0.0
2017-Dec-28 22:00N 53°27' E 006°50'0 0.0
2017-Dec-28 21:30N 53°27' E 006°50'0 0.0
2017-Dec-28 21:00N 53°27' E 006°50'0 0.0
2017-Dec-28 20:30N 53°27' E 006°50'0 0.0
2017-Dec-28 20:00N 53°27' E 006°50'0 0.0
2017-Dec-28 19:30N 53°27' E 006°50'0 0.0
2017-Dec-28 19:00N 53°27' E 006°50'0 0.0
2017-Dec-28 18:30N 53°27' E 006°50'0 0.0
2017-Dec-28 17:57N 53°27' E 006°50'0 0.0
2017-Dec-28 17:30N 53°27' E 006°50'0 0.0
2017-Dec-28 17:00N 53°27' E 006°50'0 0.0
2017-Dec-28 16:30N 53°27' E 006°50'0 0.0
2017-Dec-28 16:00N 53°27' E 006°50'0 0.0
2017-Dec-28 15:30N 53°27' E 006°50'0 0.0
2017-Dec-28 15:00N 53°27' E 006°50'0 0.0
2017-Dec-28 14:30N 53°27' E 006°50'0 0.1
2017-Dec-28 14:00N 53°27' E 006°50'0 0.0
2017-Dec-28 13:30N 53°27' E 006°50'0 0.0
2017-Dec-28 12:57N 53°27' E 006°50'0 0.0
2017-Dec-28 12:30N 53°27' E 006°50'0 0.0
2017-Dec-28 12:00N 53°27' E 006°50'0 0.0
2017-Dec-28 11:30N 53°27' E 006°50'0 0.0
2017-Dec-28 10:57N 53°27' E 006°50'0 0.0
2017-Dec-28 10:30N 53°27' E 006°50'0 0.0
2017-Dec-28 10:00N 53°27' E 006°50'0 0.0
2017-Dec-28 09:27N 53°27' E 006°50'0 0.0
2017-Dec-28 08:57N 53°27' E 006°50'0 0.0
2017-Dec-28 08:30N 53°27' E 006°50'0 0.0
2017-Dec-28 08:00N 53°27' E 006°50'0 0.0
2017-Dec-28 07:30N 53°27' E 006°50'0 0.0
2017-Dec-28 07:00N 53°27' E 006°50'0 0.0
2017-Dec-28 06:30N 53°27' E 006°50'0 0.0
2017-Dec-28 06:00N 53°27' E 006°50'0 0.0
2017-Dec-28 05:30N 53°27' E 006°50'0 0.0
2017-Dec-28 05:00N 53°27' E 006°50'0 0.0
2017-Dec-28 04:30N 53°27' E 006°50'0 0.0
2017-Dec-28 04:00N 53°27' E 006°50'0 0.0
2017-Dec-28 03:27N 53°27' E 006°50'0 0.0
2017-Dec-28 02:59N 53°27' E 006°50'1 2.5
2017-Dec-28 02:30N 53°28' E 006°50'4 7.6
2017-Dec-28 02:00N 53°31' E 006°46'510.0
2017-Dec-28 01:28N 53°34' E 006°39'511.3
2017-Dec-28 01:00N 53°37' E 006°31'612.0
2017-Dec-28 00:30N 53°37' E 006°21'8913.3
2017-Dec-27 17:47N 55°06' E 006°39'  
Track history (hours):
 
Tides and Currents Weather Stations Pressure Air Temp Water Temp Dewpoint Dewpoint Depression Visibility Wind Speed Wind Dir Waves Ship Positions

Spiegelgracht

Last reported at 2018-Jan-06 11:32 UTC. Time now 2018-Jan-20 21:19 UTC.
Position N 35°03' W 033°03'.
Warning: this ship's position is 14 days out of date.

Length 168 m; beam 25 m.

Type: Cargo ship. MMSI: 245789000.

Date/timePositionNaut miles runAvg speedWind from/ knotsBaromVisibWave heightAir tempDewpointWater temp
2018-Jan-06 11:32N 35°03' W 033°03'117.0
2018-Jan-06 11:29N 35°03' W 033°02'816.8
2018-Jan-06 11:00N 35°04' W 032°52'1717.2
2018-Jan-06 10:02N 35°08' W 032°32'117.7
2018-Jan-06 10:00N 35°08' W 032°32'917.3
2018-Jan-06 09:30N 35°10' W 032°21'917.3
2018-Jan-06 08:59N 35°12' W 032°11'2616.9
2018-Jan-06 07:28N 35°17' W 031°40'2216.7
2018-Jan-06 06:08N 35°22' W 031°13'416.9
2018-Jan-06 05:53N 35°23' W 031°08'2916.7
2018-Jan-06 04:09N 35°28' W 030°33'617.1
2018-Jan-06 03:46N 35°29' W 030°26'1816.9
2018-Jan-06 02:44N 35°33' W 030°05'3716.6
2018-Jan-06 00:32N 35°40' W 029°20'616.8
2018-Jan-06 00:12N 35°41' W 029°14'916.6
2018-Jan-05 23:40N 35°43' W 029°03'516.4
2018-Jan-05 23:22N 35°44' W 028°57'1116.7
2018-Jan-05 22:41N 35°47' W 028°44'3116.8
2018-Jan-05 20:49N 35°54' W 028°06'8916.0
2018-Jan-05 15:14N 36°11' W 026°17'415.5
2018-Jan-05 15:00N 36°11' W 026°13'815.8
2018-Jan-05 14:30N 36°13' W 026°03'815.7
2018-Jan-05 14:00N 36°15' W 025°54'815.9
2018-Jan-05 13:30N 36°16' W 025°44'816.0
2018-Jan-05 13:00N 36°18' W 025°35'815.8
2018-Jan-05 12:31N 36°20' W 025°25'815.9
2018-Jan-05 12:00N 36°21' W 025°15'815.7
2018-Jan-05 11:30N 36°23' W 025°06'815.7
2018-Jan-05 11:00N 36°25' W 024°56'815.9
2018-Jan-05 10:30N 36°26' W 024°47'816.1
2018-Jan-05 10:00N 36°28' W 024°37'815.9
2018-Jan-05 09:31N 36°29' W 024°27'815.8
2018-Jan-05 09:00N 36°31' W 024°17'815.9
2018-Jan-05 08:30N 36°32' W 024°08'816.0
2018-Jan-05 08:01N 36°34' W 023°58'816.0
2018-Jan-05 07:30N 36°36' W 023°48'816.2
2018-Jan-05 06:59N 36°37' W 023°38'  
2018-Jan-01 19:18N 49°37' W 004°28'310.6
2018-Jan-01 19:00N 49°38' W 004°24'510.2
2018-Jan-01 18:29N 49°40' W 004°16'6 9.8
2018-Jan-01 17:54N 49°42' W 004°08'5 9.4
2018-Jan-01 17:21N 49°44' W 004°00'23 9.8
2018-Jan-01 15:00N 49°52' W 003°27'612.9
2018-Jan-01 14:30N 49°53' W 003°17'714.5
2018-Jan-01 14:00N 49°56' W 003°07'815.8
2018-Jan-01 13:30N 49°60' W 002°56'917.2
2018-Jan-01 13:01N 50°02' W 002°43'7516.5
2018-Jan-01 08:28N 50°21' W 000°50'510.9
2018-Jan-01 08:00N 50°23' W 000°43'510.7
2018-Jan-01 07:30N 50°25' W 000°35'510.6
2018-Jan-01 07:00N 50°26' W 000°27'1211.7
2018-Jan-01 06:00N 50°29' W 000°09'713.1
2018-Jan-01 05:30N 50°30' E 000°01'713.9
2018-Jan-01 05:01N 50°32' E 000°11'1515.0
2018-Jan-01 04:01N 50°37' E 000°34'815.5
2018-Jan-01 03:31N 50°41' E 000°44'815.9
2018-Jan-01 03:01N 50°46' E 000°54'815.5
2018-Jan-01 02:30N 50°50' E 001°04'714.8
2018-Jan-01 02:01N 50°56' E 001°13'713.9
2018-Jan-01 01:30N 51°00' E 001°21'1212.1
2018-Jan-01 00:30N 51°08' E 001°35'18314.8
2017-Dec-31 12:11N 53°30' E 004°45'5713.5
2017-Dec-31 07:56N 53°38' E 006°20'1112.1
2017-Dec-31 07:04N 53°35' E 006°38'214.6
2017-Dec-31 06:54N 53°34' E 006°41'614.5
2017-Dec-31 06:30N 53°30' E 006°48'3 6.0
2017-Dec-31 06:00N 53°27' E 006°50'0 0.0
2017-Dec-31 05:29N 53°27' E 006°50'0 0.0
2017-Dec-31 04:59N 53°27' E 006°50'0 0.0
2017-Dec-31 04:29N 53°27' E 006°50'0 0.0
2017-Dec-31 03:59N 53°27' E 006°50'0 0.0
2017-Dec-31 03:29N 53°27' E 006°50'0 0.0
2017-Dec-31 02:59N 53°27' E 006°50'0 0.0
2017-Dec-31 02:29N 53°27' E 006°50'0 0.0
2017-Dec-31 01:59N 53°27' E 006°50'0 0.0
2017-Dec-31 01:29N 53°27' E 006°50'0 0.0
2017-Dec-31 00:59N 53°27' E 006°50'0 0.0
2017-Dec-31 00:29N 53°27' E 006°50'0 0.0
2017-Dec-30 23:59N 53°27' E 006°50'0 0.0
2017-Dec-30 23:29N 53°27' E 006°50'0 0.0
2017-Dec-30 22:59N 53°27' E 006°50'0 0.0
2017-Dec-30 22:29N 53°27' E 006°50'0 0.0
2017-Dec-30 21:59N 53°27' E 006°50'0 0.0
2017-Dec-30 21:29N 53°27' E 006°50'0 0.0
2017-Dec-30 20:59N 53°27' E 006°50'0 0.0
2017-Dec-30 20:29N 53°27' E 006°50'0 0.0
2017-Dec-30 19:59N 53°27' E 006°50'0 0.0
2017-Dec-30 19:29N 53°27' E 006°50'0 0.0
2017-Dec-30 18:59N 53°27' E 006°50'0 0.0
2017-Dec-30 18:29N 53°27' E 006°50'0 0.0
2017-Dec-30 17:59N 53°27' E 006°50'0 0.0
2017-Dec-30 17:29N 53°27' E 006°50'0 0.0
2017-Dec-30 16:59N 53°27' E 006°50'0 0.0
2017-Dec-30 16:29N 53°27' E 006°50'0 0.0
2017-Dec-30 15:59N 53°27' E 006°50'0 0.0
2017-Dec-30 15:29N 53°27' E 006°50'0 0.0
2017-Dec-30 14:59N 53°27' E 006°50'0 0.0
2017-Dec-30 14:28N 53°27' E 006°50'0 0.0
2017-Dec-30 13:58N 53°27' E 006°50'0 0.0
2017-Dec-30 13:28N 53°27' E 006°50'0 0.0
2017-Dec-30 12:58N 53°27' E 006°50'0 0.0
2017-Dec-30 12:28N 53°27' E 006°50'0 0.0
2017-Dec-30 11:58N 53°27' E 006°50'0 0.0
2017-Dec-30 11:28N 53°27' E 006°50'0 0.0
2017-Dec-30 10:58N 53°27' E 006°50'0 0.0
2017-Dec-30 10:28N 53°27' E 006°50'0 0.0
2017-Dec-30 09:58N 53°27' E 006°50'0 0.0
2017-Dec-30 09:28N 53°27' E 006°50'0 0.0
2017-Dec-30 08:58N 53°27' E 006°50'0 0.0
2017-Dec-30 08:28N 53°27' E 006°50'0 0.0
2017-Dec-30 07:58N 53°27' E 006°50'0 0.0
2017-Dec-30 07:28N 53°27' E 006°50'0 0.0
2017-Dec-30 06:58N 53°27' E 006°50'0 0.0
2017-Dec-30 06:28N 53°27' E 006°50'0 0.0
2017-Dec-30 05:55N 53°27' E 006°50'0 0.0
2017-Dec-30 05:28N 53°27' E 006°50'0 0.0
2017-Dec-30 04:58N 53°27' E 006°50'0 0.0
2017-Dec-30 04:28N 53°27' E 006°50'0 0.0
2017-Dec-30 03:58N 53°27' E 006°50'0 0.0
2017-Dec-30 03:28N 53°27' E 006°50'0 0.0
2017-Dec-30 02:58N 53°27' E 006°50'0 0.0
2017-Dec-30 02:28N 53°27' E 006°50'0 0.0
2017-Dec-30 01:58N 53°27' E 006°50'0 0.0
2017-Dec-30 01:28N 53°27' E 006°50'0 0.0
2017-Dec-30 00:58N 53°27' E 006°50'0 0.0
2017-Dec-30 00:28N 53°27' E 006°50'0 0.0
2017-Dec-29 23:58N 53°27' E 006°50'0 0.0
2017-Dec-29 23:28N 53°27' E 006°50'0 0.0
2017-Dec-29 22:58N 53°27' E 006°50'0 0.0
2017-Dec-29 22:28N 53°27' E 006°50'0 0.0
2017-Dec-29 21:58N 53°27' E 006°50'0 0.0
2017-Dec-29 21:25N 53°27' E 006°50'0 0.0
2017-Dec-29 20:58N 53°27' E 006°50'0 0.0
2017-Dec-29 20:28N 53°27' E 006°50'0 0.0
2017-Dec-29 19:58N 53°27' E 006°50'0 0.0
2017-Dec-29 19:28N 53°27' E 006°50'0 0.0
2017-Dec-29 18:58N 53°27' E 006°50'0 0.0
2017-Dec-29 18:25N 53°27' E 006°50'0 0.0
2017-Dec-29 17:58N 53°27' E 006°50'0 0.0
2017-Dec-29 17:28N 53°27' E 006°50'0 0.0
2017-Dec-29 16:58N 53°27' E 006°50'0 0.1
2017-Dec-29 16:28N 53°27' E 006°50'0 0.1
2017-Dec-29 15:58N 53°27' E 006°50'0 0.0
2017-Dec-29 15:28N 53°27' E 006°50'0 0.0
2017-Dec-29 14:58N 53°27' E 006°50'0 0.0
2017-Dec-29 14:28N 53°27' E 006°50'0 0.0
2017-Dec-29 13:58N 53°27' E 006°50'0 0.0
2017-Dec-29 13:28N 53°27' E 006°50'0 0.0
2017-Dec-29 12:58N 53°27' E 006°50'0 0.0
2017-Dec-29 12:28N 53°27' E 006°50'0 0.0
2017-Dec-29 11:58N 53°27' E 006°50'0 0.0
2017-Dec-29 11:28N 53°27' E 006°50'0 0.0
2017-Dec-29 10:58N 53°27' E 006°50'0 0.0
2017-Dec-29 10:25N 53°27' E 006°50'0 0.0
2017-Dec-29 09:58N 53°27' E 006°50'0 0.2
2017-Dec-29 09:28N 53°27' E 006°50'0 0.0
2017-Dec-29 08:58N 53°27' E 006°50'0 0.0
2017-Dec-29 08:28N 53°27' E 006°50'0 0.0
2017-Dec-29 07:58N 53°27' E 006°50'0 0.0
2017-Dec-29 07:28N 53°27' E 006°50'0 0.0
2017-Dec-29 06:58N 53°27' E 006°50'0 0.0
2017-Dec-29 06:28N 53°27' E 006°50'0 0.0
2017-Dec-29 05:58N 53°27' E 006°50'0 0.0
2017-Dec-29 05:28N 53°27' E 006°50'0 0.0
2017-Dec-29 04:58N 53°27' E 006°50'0 0.0
2017-Dec-29 04:28N 53°27' E 006°50'0 0.0
2017-Dec-29 03:49N 53°27' E 006°50'0 0.0
2017-Dec-29 03:31N 53°27' E 006°50'0 0.0
2017-Dec-29 03:01N 53°27' E 006°50'0 0.0
2017-Dec-29 02:30N 53°27' E 006°50'0 0.0
2017-Dec-29 02:00N 53°27' E 006°50'0 0.0
2017-Dec-29 01:30N 53°27' E 006°50'0 0.0
2017-Dec-29 01:00N 53°27' E 006°50'0 0.0
2017-Dec-29 00:30N 53°27' E 006°50'0 0.0
2017-Dec-29 00:00N 53°27' E 006°50'0 0.0
2017-Dec-28 23:30N 53°27' E 006°50'0 0.0
2017-Dec-28 23:00N 53°27' E 006°50'0 0.0
2017-Dec-28 22:30N 53°27' E 006°50'0 0.0
2017-Dec-28 22:00N 53°27' E 006°50'0 0.0
2017-Dec-28 21:30N 53°27' E 006°50'0 0.0
2017-Dec-28 21:00N 53°27' E 006°50'0 0.0
2017-Dec-28 20:30N 53°27' E 006°50'0 0.0
2017-Dec-28 20:00N 53°27' E 006°50'0 0.0
2017-Dec-28 19:30N 53°27' E 006°50'0 0.0
2017-Dec-28 19:00N 53°27' E 006°50'0 0.0
2017-Dec-28 18:30N 53°27' E 006°50'0 0.0
2017-Dec-28 17:57N 53°27' E 006°50'0 0.0
2017-Dec-28 17:30N 53°27' E 006°50'0 0.0
2017-Dec-28 17:00N 53°27' E 006°50'0 0.0
2017-Dec-28 16:30N 53°27' E 006°50'0 0.0
2017-Dec-28 16:00N 53°27' E 006°50'0 0.0
2017-Dec-28 15:30N 53°27' E 006°50'0 0.0
2017-Dec-28 15:00N 53°27' E 006°50'0 0.0
2017-Dec-28 14:30N 53°27' E 006°50'0 0.1
2017-Dec-28 14:00N 53°27' E 006°50'0 0.0
2017-Dec-28 13:30N 53°27' E 006°50'0 0.0
2017-Dec-28 12:57N 53°27' E 006°50'0 0.0
2017-Dec-28 12:30N 53°27' E 006°50'0 0.0
2017-Dec-28 12:00N 53°27' E 006°50'0 0.0
2017-Dec-28 11:30N 53°27' E 006°50'0 0.0
2017-Dec-28 10:57N 53°27' E 006°50'0 0.0
2017-Dec-28 10:30N 53°27' E 006°50'0 0.0
2017-Dec-28 10:00N 53°27' E 006°50'0 0.0
2017-Dec-28 09:27N 53°27' E 006°50'0 0.0
2017-Dec-28 08:57N 53°27' E 006°50'0 0.0
2017-Dec-28 08:30N 53°27' E 006°50'0 0.0
2017-Dec-28 08:00N 53°27' E 006°50'0 0.0
2017-Dec-28 07:30N 53°27' E 006°50'0 0.0
2017-Dec-28 07:00N 53°27' E 006°50'0 0.0
2017-Dec-28 06:30N 53°27' E 006°50'0 0.0
2017-Dec-28 06:00N 53°27' E 006°50'0 0.0
2017-Dec-28 05:30N 53°27' E 006°50'0 0.0
2017-Dec-28 05:00N 53°27' E 006°50'0 0.0
2017-Dec-28 04:30N 53°27' E 006°50'0 0.0
2017-Dec-28 04:00N 53°27' E 006°50'0 0.0
2017-Dec-28 03:27N 53°27' E 006°50'0 0.0
2017-Dec-28 02:59N 53°27' E 006°50'1 2.5
2017-Dec-28 02:30N 53°28' E 006°50'4 7.6
2017-Dec-28 02:00N 53°31' E 006°46'510.0
2017-Dec-28 01:28N 53°34' E 006°39'511.3
2017-Dec-28 01:00N 53°37' E 006°31'612.0
2017-Dec-28 00:30N 53°37' E 006°21'8913.3
2017-Dec-27 17:47N 55°06' E 006°39'  

Dump ship's entire track history